^^
Station Historical Data
Daily Summary for April 15, 2019 Units:  Both    English   Metric
« Previous Day
Next Day »
Daily Weekly Monthly Yearly Custom
  High: Low: Average:
Temperature: 60.2 °F /  15.7 °C 30.1 °F /  -1.1 °C 44.8 °F /  7.1 °C
Dew Point: 38.0 °F /  3.3 °C 25.9 °F /  -3.4 °C 29.4 °F /  -1.4 °C
Humidity: 91% 30% 61%
Wind Speed: 24.0mph /  38.6km/h - 8.1mph /  13km/h
Wind Gust: 28.0mph /  45.1km/h - -
Wind- - SW
Pressure: 29.71 in /  1006 hPa 29.57 in /  1001.2 hPa -
Precipitation: 0.00 in /  0 mm    
Historical Graphs
 
 
Tabular Data for April 15, 2019
Time Temperature Dew Point Pressure Wind Wind Speed Wind Gust Humidity Rainfall Rate (Hourly) solar Conditions
00:04 32.6 °F /  0.3 °C 27.7 °F /  -2.4 °C 29.62in /  1002.9hPa SSE 10.0mph /  16.1km/h 18.0mph /  29km/h 82% 0.00in /  0mm 0.00 W/m2
00:09 32.5 °F /  0.3 °C 27.9 °F /  -2.3 °C 29.62in /  1002.9hPa SE 9.0mph /  14.5km/h 15.0mph /  24.1km/h 83% 0.00in /  0mm 0.00 W/m2
00:14 32.5 °F /  0.3 °C 28.2 °F /  -2.1 °C 29.62in /  1002.9hPa SE 6.0mph /  9.7km/h 13.0mph /  20.9km/h 84% 0.00in /  0mm 0.00 W/m2
00:19 32.5 °F /  0.3 °C 28.2 °F /  -2.1 °C 29.62in /  1002.9hPa SSE 10.0mph /  16.1km/h 13.0mph /  20.9km/h 84% 0.00in /  0mm 0.00 W/m2
00:24 32.4 °F /  0.2 °C 28.1 °F /  -2.2 °C 29.62in /  1002.9hPa SE 9.0mph /  14.5km/h 14.0mph /  22.5km/h 84% 0.00in /  0mm 0.00 W/m2
00:29 32.4 °F /  0.2 °C 28.1 °F /  -2.2 °C 29.62in /  1002.9hPa SE 13.0mph /  20.9km/h 16.0mph /  25.7km/h 84% 0.00in /  0mm 0.00 W/m2
00:34 32.3 °F /  0.2 °C 28.0 °F /  -2.2 °C 29.61in /  1002.6hPa SE 17.0mph /  27.4km/h 18.0mph /  29km/h 84% 0.00in /  0mm 0.00 W/m2
00:39 32.3 °F /  0.2 °C 28.3 °F /  -2.1 °C 29.61in /  1002.6hPa SSE 14.0mph /  22.5km/h 18.0mph /  29km/h 85% 0.00in /  0mm 0.00 W/m2
00:44 32.4 °F /  0.2 °C 28.4 °F /  -2 °C 29.61in /  1002.6hPa SE 13.0mph /  20.9km/h 17.0mph /  27.4km/h 85% 0.00in /  0mm 0.00 W/m2
00:49 32.4 °F /  0.2 °C 28.4 °F /  -2 °C 29.61in /  1002.6hPa SSE 8.0mph /  12.9km/h 17.0mph /  27.4km/h 85% 0.00in /  0mm 0.00 W/m2
00:54 32.4 °F /  0.2 °C 28.4 °F /  -2 °C 29.61in /  1002.6hPa SSE 13.0mph /  20.9km/h 18.0mph /  29km/h 85% 0.00in /  0mm 0.00 W/m2
00:59 32.4 °F /  0.2 °C 28.4 °F /  -2 °C 29.61in /  1002.6hPa ESE 8.0mph /  12.9km/h 18.0mph /  29km/h 85% 0.00in /  0mm 0.00 W/m2
01:04 32.5 °F /  0.3 °C 28.5 °F /  -1.9 °C 29.61in /  1002.6hPa SSE 9.0mph /  14.5km/h 16.0mph /  25.7km/h 85% 0.00in /  0mm 0.00 W/m2
01:09 32.6 °F /  0.3 °C 28.6 °F /  -1.9 °C 29.61in /  1002.6hPa SSE 12.0mph /  19.3km/h 15.0mph /  24.1km/h 85% 0.00in /  0mm 0.00 W/m2
01:14 32.6 °F /  0.3 °C 28.3 °F /  -2.1 °C 29.61in /  1002.6hPa ESE 10.0mph /  16.1km/h 15.0mph /  24.1km/h 84% 0.00in /  0mm 0.00 W/m2
01:19 32.7 °F /  0.4 °C 28.4 °F /  -2 °C 29.61in /  1002.6hPa SE 7.0mph /  11.3km/h 15.0mph /  24.1km/h 84% 0.00in /  0mm 0.00 W/m2
01:24 32.7 °F /  0.4 °C 28.7 °F /  -1.8 °C 29.61in /  1002.6hPa SE 4.0mph /  6.4km/h 13.0mph /  20.9km/h 85% 0.00in /  0mm 0.00 W/m2
01:29 32.8 °F /  0.4 °C 28.5 °F /  -1.9 °C 29.61in /  1002.6hPa SSE 8.0mph /  12.9km/h 14.0mph /  22.5km/h 84% 0.00in /  0mm 0.00 W/m2
01:34 32.7 °F /  0.4 °C 28.7 °F /  -1.8 °C 29.60in /  1002.3hPa SE 10.0mph /  16.1km/h 14.0mph /  22.5km/h 85% 0.00in /  0mm 0.00 W/m2
01:39 32.7 °F /  0.4 °C 28.7 °F /  -1.8 °C 29.60in /  1002.3hPa SE 12.0mph /  19.3km/h 14.0mph /  22.5km/h 85% 0.00in /  0mm 0.00 W/m2
01:44 32.6 °F /  0.3 °C 28.3 °F /  -2.1 °C 29.60in /  1002.3hPa SSE 13.0mph /  20.9km/h 14.0mph /  22.5km/h 84% 0.00in /  0mm 0.00 W/m2
01:49 32.5 °F /  0.3 °C 28.2 °F /  -2.1 °C 29.60in /  1002.3hPa SE 7.0mph /  11.3km/h 15.0mph /  24.1km/h 84% 0.00in /  0mm 0.00 W/m2
01:54 32.4 °F /  0.2 °C 28.1 °F /  -2.2 °C 29.60in /  1002.3hPa SE 8.0mph /  12.9km/h 15.0mph /  24.1km/h 84% 0.00in /  0mm 0.00 W/m2
01:59 32.3 °F /  0.2 °C 28.3 °F /  -2.1 °C 29.60in /  1002.3hPa SSE 10.0mph /  16.1km/h 14.0mph /  22.5km/h 85% 0.00in /  0mm 0.00 W/m2
02:04 32.1 °F /  0.1 °C 28.1 °F /  -2.2 °C 29.59in /  1001.9hPa SE 9.0mph /  14.5km/h 14.0mph /  22.5km/h 85% 0.00in /  0mm 0.00 W/m2
02:09 31.9 °F /  -0.1 °C 27.9 °F /  -2.3 °C 29.58in /  1001.6hPa SE 13.0mph /  20.9km/h 16.0mph /  25.7km/h 85% 0.00in /  0mm 0.00 W/m2
02:14 31.9 °F /  -0.1 °C 27.9 °F /  -2.3 °C 29.58in /  1001.6hPa SE 14.0mph /  22.5km/h 16.0mph /  25.7km/h 85% 0.00in /  0mm 0.00 W/m2
02:19 31.8 °F /  -0.1 °C 28.1 °F /  -2.2 °C 29.57in /  1001.2hPa SE 11.0mph /  17.7km/h 17.0mph /  27.4km/h 86% 0.00in /  0mm 0.00 W/m2
02:24 31.7 °F /  -0.2 °C 28.0 °F /  -2.2 °C 29.58in /  1001.6hPa SSE 12.0mph /  19.3km/h 17.0mph /  27.4km/h 86% 0.00in /  0mm 0.00 W/m2
02:29 31.7 °F /  -0.2 °C 28.0 °F /  -2.2 °C 29.59in /  1001.9hPa SSE 12.0mph /  19.3km/h 17.0mph /  27.4km/h 86% 0.00in /  0mm 0.00 W/m2
02:34 31.7 °F /  -0.2 °C 28.0 °F /  -2.2 °C 29.60in /  1002.3hPa SSE 7.0mph /  11.3km/h 12.0mph /  19.3km/h 86% 0.00in /  0mm 0.00 W/m2
02:39 31.7 °F /  -0.2 °C 28.0 °F /  -2.2 °C 29.60in /  1002.3hPa South 5.0mph /  8km/h 12.0mph /  19.3km/h 86% 0.00in /  0mm 0.00 W/m2
02:44 31.5 °F /  -0.3 °C 27.8 °F /  -2.3 °C 29.59in /  1001.9hPa SSE 8.0mph /  12.9km/h 10.0mph /  16.1km/h 86% 0.00in /  0mm 0.00 W/m2
02:49 31.3 °F /  -0.4 °C 27.6 °F /  -2.4 °C 29.59in /  1001.9hPa SSE 6.0mph /  9.7km/h 9.0mph /  14.5km/h 86% 0.00in /  0mm 0.00 W/m2
02:54 31.2 °F /  -0.4 °C 27.5 °F /  -2.5 °C 29.59in /  1001.9hPa SSE 8.0mph /  12.9km/h 9.0mph /  14.5km/h 86% 0.00in /  0mm 0.00 W/m2
02:59 31.3 °F /  -0.4 °C 27.9 °F /  -2.3 °C 29.59in /  1001.9hPa SE 7.0mph /  11.3km/h 9.0mph /  14.5km/h 87% 0.00in /  0mm 0.00 W/m2
03:04 31.2 °F /  -0.4 °C 27.8 °F /  -2.3 °C 29.58in /  1001.6hPa SE 7.0mph /  11.3km/h 10.0mph /  16.1km/h 87% 0.00in /  0mm 0.00 W/m2
03:09 31.2 °F /  -0.4 °C 27.8 °F /  -2.3 °C 29.59in /  1001.9hPa SE 6.0mph /  9.7km/h 10.0mph /  16.1km/h 87% 0.00in /  0mm 0.00 W/m2
03:14 31.0 °F /  -0.6 °C 27.6 °F /  -2.4 °C 29.58in /  1001.6hPa SE 5.0mph /  8km/h 9.0mph /  14.5km/h 87% 0.00in /  0mm 0.00 W/m2
03:19 31.0 °F /  -0.6 °C 27.6 °F /  -2.4 °C 29.58in /  1001.6hPa SE 8.0mph /  12.9km/h 10.0mph /  16.1km/h 87% 0.00in /  0mm 0.00 W/m2
03:24 31.0 °F /  -0.6 °C 27.9 °F /  -2.3 °C 29.58in /  1001.6hPa SE 7.0mph /  11.3km/h 10.0mph /  16.1km/h 88% 0.00in /  0mm 0.00 W/m2
03:29 31.0 °F /  -0.6 °C 27.9 °F /  -2.3 °C 29.58in /  1001.6hPa SE 9.0mph /  14.5km/h 10.0mph /  16.1km/h 88% 0.00in /  0mm 0.00 W/m2
03:34 31.0 °F /  -0.6 °C 27.9 °F /  -2.3 °C 29.58in /  1001.6hPa SSE 7.0mph /  11.3km/h 12.0mph /  19.3km/h 88% 0.00in /  0mm 0.00 W/m2
03:39 30.9 °F /  -0.6 °C 27.8 °F /  -2.3 °C 29.58in /  1001.6hPa SSE 6.0mph /  9.7km/h 12.0mph /  19.3km/h 88% 0.00in /  0mm 0.00 W/m2
03:44 30.9 °F /  -0.6 °C 27.8 °F /  -2.3 °C 29.58in /  1001.6hPa ESE 8.0mph /  12.9km/h 9.0mph /  14.5km/h 88% 0.00in /  0mm 0.00 W/m2
03:49 30.8 °F /  -0.7 °C 27.7 °F /  -2.4 °C 29.58in /  1001.6hPa SE 7.0mph /  11.3km/h 9.0mph /  14.5km/h 88% 0.00in /  0mm 0.00 W/m2
03:54 30.5 °F /  -0.8 °C 27.4 °F /  -2.6 °C 29.57in /  1001.2hPa SE 7.0mph /  11.3km/h 9.0mph /  14.5km/h 88% 0.00in /  0mm 0.00 W/m2
03:59 30.4 °F /  -0.9 °C 27.3 °F /  -2.6 °C 29.57in /  1001.2hPa SE 4.0mph /  6.4km/h 8.0mph /  12.9km/h 88% 0.00in /  0mm 0.00 W/m2
04:04 30.2 °F /  -1 °C 27.1 °F /  -2.7 °C 29.57in /  1001.2hPa SE 6.0mph /  9.7km/h 9.0mph /  14.5km/h 88% 0.00in /  0mm 0.00 W/m2
04:09 30.2 °F /  -1 °C 27.1 °F /  -2.7 °C 29.57in /  1001.2hPa SE 7.0mph /  11.3km/h 9.0mph /  14.5km/h 88% 0.00in /  0mm 0.00 W/m2
04:14 30.3 °F /  -0.9 °C 27.4 °F /  -2.6 °C 29.57in /  1001.2hPa SE 7.0mph /  11.3km/h 9.0mph /  14.5km/h 89% 0.00in /  0mm 0.00 W/m2
04:19 30.4 °F /  -0.9 °C 27.5 °F /  -2.5 °C 29.57in /  1001.2hPa SE 11.0mph /  17.7km/h 11.0mph /  17.7km/h 89% 0.00in /  0mm 0.00 W/m2
04:24 30.5 °F /  -0.8 °C 27.6 °F /  -2.4 °C 29.58in /  1001.6hPa SE 6.0mph /  9.7km/h 11.0mph /  17.7km/h 89% 0.00in /  0mm 0.00 W/m2
04:29 30.6 °F /  -0.8 °C 27.7 °F /  -2.4 °C 29.57in /  1001.2hPa SE 8.0mph /  12.9km/h 11.0mph /  17.7km/h 89% 0.00in /  0mm 0.00 W/m2
04:34 30.6 °F /  -0.8 °C 27.7 °F /  -2.4 °C 29.58in /  1001.6hPa SE 7.0mph /  11.3km/h 10.0mph /  16.1km/h 89% 0.00in /  0mm 0.00 W/m2
04:39 30.6 °F /  -0.8 °C 27.7 °F /  -2.4 °C 29.58in /  1001.6hPa SSE 7.0mph /  11.3km/h 9.0mph /  14.5km/h 89% 0.00in /  0mm 0.00 W/m2
04:44 30.6 °F /  -0.8 °C 27.7 °F /  -2.4 °C 29.57in /  1001.2hPa SE 6.0mph /  9.7km/h 8.0mph /  12.9km/h 89% 0.00in /  0mm 0.00 W/m2
04:49 30.5 °F /  -0.8 °C 27.6 °F /  -2.4 °C 29.57in /  1001.2hPa SE 7.0mph /  11.3km/h 8.0mph /  12.9km/h 89% 0.00in /  0mm 0.00 W/m2
04:54 30.6 °F /  -0.8 °C 27.7 °F /  -2.4 °C 29.58in /  1001.6hPa SE 5.0mph /  8km/h 8.0mph /  12.9km/h 89% 0.00in /  0mm 0.00 W/m2
04:59 30.4 °F /  -0.9 °C 27.5 °F /  -2.5 °C 29.57in /  1001.2hPa SE 5.0mph /  8km/h 8.0mph /  12.9km/h 89% 0.00in /  0mm 0.00 W/m2
05:04 30.4 °F /  -0.9 °C 27.5 °F /  -2.5 °C 29.57in /  1001.2hPa SSE 5.0mph /  8km/h 7.0mph /  11.3km/h 89% 0.00in /  0mm 0.00 W/m2
05:09 30.3 °F /  -0.9 °C 27.4 °F /  -2.6 °C 29.57in /  1001.2hPa SSE 3.0mph /  4.8km/h 7.0mph /  11.3km/h 89% 0.00in /  0mm 0.00 W/m2
05:14 30.2 °F /  -1 °C 27.3 °F /  -2.6 °C 29.58in /  1001.6hPa SSE 3.0mph /  4.8km/h 6.0mph /  9.7km/h 89% 0.00in /  0mm 0.00 W/m2
05:19 30.1 °F /  -1.1 °C 27.3 °F /  -2.6 °C 29.57in /  1001.2hPa SSE 3.0mph /  4.8km/h 6.0mph /  9.7km/h 89% 0.00in /  0mm 0.00 W/m2
05:24 30.1 °F /  -1.1 °C 27.3 °F /  -2.6 °C 29.57in /  1001.2hPa SE 4.0mph /  6.4km/h 7.0mph /  11.3km/h 89% 0.00in /  0mm 0.00 W/m2
05:29 30.1 °F /  -1.1 °C 27.5 °F /  -2.5 °C 29.57in /  1001.2hPa SE 5.0mph /  8km/h 7.0mph /  11.3km/h 90% 0.00in /  0mm 0.00 W/m2
05:34 30.2 °F /  -1 °C 27.6 °F /  -2.4 °C 29.57in /  1001.2hPa SE 4.0mph /  6.4km/h 7.0mph /  11.3km/h 90% 0.00in /  0mm 0.00 W/m2
05:39 30.2 °F /  -1 °C 27.6 °F /  -2.4 °C 29.57in /  1001.2hPa SSE 6.0mph /  9.7km/h 7.0mph /  11.3km/h 90% 0.00in /  0mm 0.00 W/m2
05:44 30.3 °F /  -0.9 °C 27.7 °F /  -2.4 °C 29.57in /  1001.2hPa South 5.0mph /  8km/h 7.0mph /  11.3km/h 90% 0.00in /  0mm 0.00 W/m2
05:49 30.4 °F /  -0.9 °C 27.8 °F /  -2.3 °C 29.57in /  1001.2hPa South 6.0mph /  9.7km/h 7.0mph /  11.3km/h 90% 0.00in /  0mm 0.00 W/m2
05:54 30.6 °F /  -0.8 °C 28.0 °F /  -2.2 °C 29.57in /  1001.2hPa SSE 6.0mph /  9.7km/h 8.0mph /  12.9km/h 90% 0.00in /  0mm 0.00 W/m2
05:59 30.8 °F /  -0.7 °C 28.2 °F /  -2.1 °C 29.57in /  1001.2hPa South 4.0mph /  6.4km/h 8.0mph /  12.9km/h 90% 0.00in /  0mm 0.00 W/m2
06:04 30.9 °F /  -0.6 °C 28.3 °F /  -2.1 °C 29.57in /  1001.2hPa SSE 6.0mph /  9.7km/h 8.0mph /  12.9km/h 90% 0.00in /  0mm 0.00 W/m2
06:09 31.1 °F /  -0.5 °C 28.5 °F /  -1.9 °C 29.57in /  1001.2hPa SSE 6.0mph /  9.7km/h 8.0mph /  12.9km/h 90% 0.00in /  0mm 0.00 W/m2
06:14 31.2 °F /  -0.4 °C 28.6 °F /  -1.9 °C 29.57in /  1001.2hPa SE 5.0mph /  8km/h 8.0mph /  12.9km/h 90% 0.00in /  0mm 0.00 W/m2
06:19 31.2 °F /  -0.4 °C 28.6 °F /  -1.9 °C 29.57in /  1001.2hPa SSE 5.0mph /  8km/h 7.0mph /  11.3km/h 90% 0.00in /  0mm 0.00 W/m2
06:24 31.2 °F /  -0.4 °C 28.6 °F /  -1.9 °C 29.57in /  1001.2hPa SSE 4.0mph /  6.4km/h 7.0mph /  11.3km/h 90% 0.00in /  0mm 0.00 W/m2
06:29 31.2 °F /  -0.4 °C 28.6 °F /  -1.9 °C 29.57in /  1001.2hPa SSE 4.0mph /  6.4km/h 7.0mph /  11.3km/h 90% 0.00in /  0mm 0.00 W/m2
06:34 31.3 °F /  -0.4 °C 28.7 °F /  -1.8 °C 29.57in /  1001.2hPa SE 3.0mph /  4.8km/h 6.0mph /  9.7km/h 90% 0.00in /  0mm 0.00 W/m2
06:39 31.3 °F /  -0.4 °C 28.7 °F /  -1.8 °C 29.57in /  1001.2hPa SE 3.0mph /  4.8km/h 5.0mph /  8km/h 90% 0.00in /  0mm 0.00 W/m2
06:44 31.3 °F /  -0.4 °C 28.7 °F /  -1.8 °C 29.57in /  1001.2hPa SSE 4.0mph /  6.4km/h 6.0mph /  9.7km/h 90% 0.00in /  0mm 0.00 W/m2
06:49 31.5 °F /  -0.3 °C 28.9 °F /  -1.7 °C 29.57in /  1001.2hPa South 5.0mph /  8km/h 7.0mph /  11.3km/h 90% 0.00in /  0mm 0.00 W/m2
06:54 31.6 °F /  -0.2 °C 29.0 °F /  -1.7 °C 29.57in /  1001.2hPa SSE 4.0mph /  6.4km/h 7.0mph /  11.3km/h 90% 0.00in /  0mm 0.00 W/m2
06:59 31.6 °F /  -0.2 °C 29.0 °F /  -1.7 °C 29.58in /  1001.6hPa SE 4.0mph /  6.4km/h 6.0mph /  9.7km/h 90% 0.00in /  0mm 0.00 W/m2
07:04 31.5 °F /  -0.3 °C 28.9 °F /  -1.7 °C 29.58in /  1001.6hPa SE 5.0mph /  8km/h 6.0mph /  9.7km/h 90% 0.00in /  0mm 5.00 W/m2
07:09 31.6 °F /  -0.2 °C 29.0 °F /  -1.7 °C 29.58in /  1001.6hPa SE 5.0mph /  8km/h 7.0mph /  11.3km/h 90% 0.00in /  0mm 5.00 W/m2
07:14 31.7 °F /  -0.2 °C 29.1 °F /  -1.6 °C 29.58in /  1001.6hPa SSE 6.0mph /  9.7km/h 7.0mph /  11.3km/h 90% 0.00in /  0mm 7.00 W/m2
07:19 31.8 °F /  -0.1 °C 29.2 °F /  -1.6 °C 29.58in /  1001.6hPa SSE 4.0mph /  6.4km/h 7.0mph /  11.3km/h 90% 0.00in /  0mm 11.00 W/m2
07:24 32.0 °F /  0 °C 29.4 °F /  -1.4 °C 29.58in /  1001.6hPa South 3.0mph /  4.8km/h 6.0mph /  9.7km/h 90% 0.00in /  0mm 18.00 W/m2
07:29 32.1 °F /  0.1 °C 29.5 °F /  -1.4 °C 29.58in /  1001.6hPa SSE 6.0mph /  9.7km/h 6.0mph /  9.7km/h 90% 0.00in /  0mm 18.00 W/m2
07:34 32.3 °F /  0.2 °C 29.7 °F /  -1.3 °C 29.58in /  1001.6hPa SSE 2.0mph /  3.2km/h 6.0mph /  9.7km/h 90% 0.00in /  0mm 21.00 W/m2
07:39 32.4 °F /  0.2 °C 29.8 °F /  -1.2 °C 29.58in /  1001.6hPa SE 4.0mph /  6.4km/h 6.0mph /  9.7km/h 90% 0.00in /  0mm 18.00 W/m2
07:44 32.4 °F /  0.2 °C 29.8 °F /  -1.2 °C 29.59in /  1001.9hPa SSE 2.0mph /  3.2km/h 5.0mph /  8km/h 90% 0.00in /  0mm 19.00 W/m2
07:49 32.4 °F /  0.2 °C 29.8 °F /  -1.2 °C 29.59in /  1001.9hPa SSE 2.0mph /  3.2km/h 4.0mph /  6.4km/h 90% 0.00in /  0mm 18.00 W/m2
07:54 32.4 °F /  0.2 °C 29.8 °F /  -1.2 °C 29.59in /  1001.9hPa South 3.0mph /  4.8km/h 4.0mph /  6.4km/h 90% 0.00in /  0mm 25.00 W/m2
07:59 32.5 °F /  0.3 °C 29.9 °F /  -1.2 °C 29.59in /  1001.9hPa South 3.0mph /  4.8km/h 4.0mph /  6.4km/h 90% 0.00in /  0mm 28.00 W/m2
08:04 32.7 °F /  0.4 °C 30.1 °F /  -1.1 °C 29.60in /  1002.3hPa South 5.0mph /  8km/h 5.0mph /  8km/h 90% 0.00in /  0mm 26.00 W/m2
08:09 32.9 °F /  0.5 °C 30.3 °F /  -0.9 °C 29.60in /  1002.3hPa South 5.0mph /  8km/h 9.0mph /  14.5km/h 90% 0.00in /  0mm 28.00 W/m2
08:14 33.2 °F /  0.7 °C 30.9 °F /  -0.6 °C 29.60in /  1002.3hPa South 6.0mph /  9.7km/h 9.0mph /  14.5km/h 91% 0.00in /  0mm 32.00 W/m2
08:19 33.5 °F /  0.8 °C 30.9 °F /  -0.6 °C 29.60in /  1002.3hPa SSW 7.0mph /  11.3km/h 9.0mph /  14.5km/h 90% 0.00in /  0mm 35.00 W/m2
08:24 33.9 °F /  1.1 °C 31.3 °F /  -0.4 °C 29.60in /  1002.3hPa South 9.0mph /  14.5km/h 9.0mph /  14.5km/h 90% 0.00in /  0mm 39.00 W/m2
08:29 34.2 °F /  1.2 °C 31.6 °F /  -0.2 °C 29.61in /  1002.6hPa South 3.0mph /  4.8km/h 9.0mph /  14.5km/h 90% 0.00in /  0mm 56.00 W/m2
08:34 34.4 °F /  1.3 °C 31.8 °F /  -0.1 °C 29.61in /  1002.6hPa South 5.0mph /  8km/h 9.0mph /  14.5km/h 90% 0.00in /  0mm 58.00 W/m2
08:39 34.7 °F /  1.5 °C 32.1 °F /  0.1 °C 29.61in /  1002.6hPa South 3.0mph /  4.8km/h 6.0mph /  9.7km/h 90% 0.00in /  0mm 62.00 W/m2
08:44 35.0 °F /  1.7 °C 32.1 °F /  0.1 °C 29.61in /  1002.6hPa SSW 4.0mph /  6.4km/h 6.0mph /  9.7km/h 89% 0.00in /  0mm 69.00 W/m2
08:49 35.3 °F /  1.8 °C 32.4 °F /  0.2 °C 29.61in /  1002.6hPa South 2.0mph /  3.2km/h 6.0mph /  9.7km/h 89% 0.00in /  0mm 83.00 W/m2
08:54 35.6 °F /  2 °C 32.7 °F /  0.4 °C 29.61in /  1002.6hPa SSW 3.0mph /  4.8km/h 6.0mph /  9.7km/h 89% 0.00in /  0mm 81.00 W/m2
08:59 35.9 °F /  2.2 °C 33.0 °F /  0.6 °C 29.61in /  1002.6hPa SSW 5.0mph /  8km/h 6.0mph /  9.7km/h 89% 0.00in /  0mm 83.00 W/m2
09:04 36.3 °F /  2.4 °C 33.4 °F /  0.8 °C 29.61in /  1002.6hPa SW 1.0mph /  1.6km/h 6.0mph /  9.7km/h 89% 0.00in /  0mm 77.00 W/m2
09:09 36.6 °F /  2.6 °C 33.4 °F /  0.8 °C 29.61in /  1002.6hPa SSW 5.0mph /  8km/h 6.0mph /  9.7km/h 88% 0.00in /  0mm 91.00 W/m2
09:14 37.0 °F /  2.8 °C 33.8 °F /  1 °C 29.61in /  1002.6hPa SSW 3.0mph /  4.8km/h 7.0mph /  11.3km/h 88% 0.00in /  0mm 146.00 W/m2
09:19 37.7 °F /  3.2 °C 34.5 °F /  1.4 °C 29.61in /  1002.6hPa SSW 4.0mph /  6.4km/h 7.0mph /  11.3km/h 88% 0.00in /  0mm 167.00 W/m2
09:24 38.2 °F /  3.4 °C 34.7 °F /  1.5 °C 29.61in /  1002.6hPa SW 5.0mph /  8km/h 8.0mph /  12.9km/h 87% 0.00in /  0mm 97.00 W/m2
09:29 38.6 °F /  3.7 °C 34.8 °F /  1.6 °C 29.61in /  1002.6hPa SSW 2.0mph /  3.2km/h 8.0mph /  12.9km/h 86% 0.00in /  0mm 132.00 W/m2
09:34 39.0 °F /  3.9 °C 34.9 °F /  1.6 °C 29.62in /  1002.9hPa WSW 5.0mph /  8km/h 6.0mph /  9.7km/h 85% 0.00in /  0mm 148.00 W/m2
09:39 39.7 °F /  4.3 °C 35.3 °F /  1.8 °C 29.61in /  1002.6hPa SSW 1.0mph /  1.6km/h 6.0mph /  9.7km/h 84% 0.00in /  0mm 183.00 W/m2
09:44 40.2 °F /  4.6 °C 35.8 °F /  2.1 °C 29.62in /  1002.9hPa Calm   6.0mph /  9.7km/h 84% 0.00in /  0mm 218.00 W/m2
09:49 40.9 °F /  4.9 °C 36.1 °F /  2.3 °C 29.62in /  1002.9hPa SW 3.0mph /  4.8km/h 6.0mph /  9.7km/h 83% 0.00in /  0mm 195.00 W/m2
09:54 41.7 °F /  5.4 °C 36.6 °F /  2.6 °C 29.62in /  1002.9hPa SW 4.0mph /  6.4km/h 6.0mph /  9.7km/h 82% 0.00in /  0mm 207.00 W/m2
09:59 42.4 °F /  5.8 °C 36.7 °F /  2.6 °C 29.62in /  1002.9hPa SW 5.0mph /  8km/h 7.0mph /  11.3km/h 80% 0.00in /  0mm 185.00 W/m2
10:04 43.0 °F /  6.1 °C 36.6 °F /  2.6 °C 29.62in /  1002.9hPa WSW 7.0mph /  11.3km/h 8.0mph /  12.9km/h 78% 0.00in /  0mm 188.00 W/m2
10:09 43.4 °F /  6.3 °C 36.7 °F /  2.6 °C 29.61in /  1002.6hPa WSW 5.0mph /  8km/h 9.0mph /  14.5km/h 77% 0.00in /  0mm 190.00 W/m2
10:14 43.8 °F /  6.6 °C 36.4 °F /  2.4 °C 29.61in /  1002.6hPa SSW 8.0mph /  12.9km/h 10.0mph /  16.1km/h 75% 0.00in /  0mm 202.00 W/m2
10:19 44.2 °F /  6.8 °C 36.1 °F /  2.3 °C 29.61in /  1002.6hPa SSW 7.0mph /  11.3km/h 11.0mph /  17.7km/h 73% 0.00in /  0mm 216.00 W/m2
10:24 44.6 °F /  7 °C 36.5 °F /  2.5 °C 29.61in /  1002.6hPa WSW 7.0mph /  11.3km/h 13.0mph /  20.9km/h 73% 0.00in /  0mm 260.00 W/m2
10:29 45.2 °F /  7.3 °C 36.4 °F /  2.4 °C 29.62in /  1002.9hPa SSW 6.0mph /  9.7km/h 13.0mph /  20.9km/h 71% 0.00in /  0mm 311.00 W/m2
10:34 45.9 °F /  7.7 °C 36.7 °F /  2.6 °C 29.62in /  1002.9hPa SW 9.0mph /  14.5km/h 13.0mph /  20.9km/h 70% 0.00in /  0mm 383.00 W/m2
10:39 46.5 °F /  8.1 °C 36.9 °F /  2.7 °C 29.62in /  1002.9hPa WSW 7.0mph /  11.3km/h 13.0mph /  20.9km/h 69% 0.00in /  0mm 297.00 W/m2
10:44 46.9 °F /  8.3 °C 36.1 °F /  2.3 °C 29.61in /  1002.6hPa WSW 10.0mph /  16.1km/h 14.0mph /  22.5km/h 66% 0.00in /  0mm 301.00 W/m2
10:49 47.0 °F /  8.3 °C 35.8 °F /  2.1 °C 29.62in /  1002.9hPa SW 12.0mph /  19.3km/h 17.0mph /  27.4km/h 65% 0.00in /  0mm 274.00 W/m2
10:54 47.3 °F /  8.5 °C 36.1 °F /  2.3 °C 29.62in /  1002.9hPa SW 12.0mph /  19.3km/h 17.0mph /  27.4km/h 65% 0.00in /  0mm 325.00 W/m2
10:59 47.9 °F /  8.8 °C 37.1 °F /  2.8 °C 29.62in /  1002.9hPa WSW 8.0mph /  12.9km/h 16.0mph /  25.7km/h 66% 0.00in /  0mm 731.00 W/m2
11:04 49.3 °F /  9.6 °C 37.2 °F /  2.9 °C 29.62in /  1002.9hPa SW 12.0mph /  19.3km/h 17.0mph /  27.4km/h 63% 0.00in /  0mm 408.00 W/m2
11:09 49.4 °F /  9.7 °C 37.3 °F /  2.9 °C 29.62in /  1002.9hPa SW 13.0mph /  20.9km/h 17.0mph /  27.4km/h 63% 0.00in /  0mm 399.00 W/m2
11:14 49.6 °F /  9.8 °C 37.1 °F /  2.8 °C 29.62in /  1002.9hPa SW 15.0mph /  24.1km/h 19.0mph /  30.6km/h 62% 0.00in /  0mm 575.00 W/m2
11:19 50.5 °F /  10.3 °C 38.0 °F /  3.3 °C 29.62in /  1002.9hPa SW 17.0mph /  27.4km/h 21.0mph /  33.8km/h 62% 0.00in /  0mm 489.00 W/m2
11:24 50.6 °F /  10.3 °C 36.8 °F /  2.7 °C 29.62in /  1002.9hPa SW 9.0mph /  14.5km/h 21.0mph /  33.8km/h 59% 0.00in /  0mm 615.00 W/m2
11:29 51.0 °F /  10.6 °C 37.6 °F /  3.1 °C 29.62in /  1002.9hPa SW 16.0mph /  25.7km/h 18.0mph /  29km/h 60% 0.00in /  0mm 492.00 W/m2
11:34 51.1 °F /  10.6 °C 36.8 °F /  2.7 °C 29.62in /  1002.9hPa SSW 10.0mph /  16.1km/h 18.0mph /  29km/h 58% 0.00in /  0mm 438.00 W/m2
11:39 51.2 °F /  10.7 °C 36.9 °F /  2.7 °C 29.62in /  1002.9hPa WSW 10.0mph /  16.1km/h 17.0mph /  27.4km/h 58% 0.00in /  0mm 394.00 W/m2
11:44 51.7 °F /  10.9 °C 36.9 °F /  2.7 °C 29.62in /  1002.9hPa SSW 7.0mph /  11.3km/h 16.0mph /  25.7km/h 57% 0.00in /  0mm 747.00 W/m2
11:49 52.4 °F /  11.3 °C 36.2 °F /  2.3 °C 29.62in /  1002.9hPa SW 8.0mph /  12.9km/h 16.0mph /  25.7km/h 54% 0.00in /  0mm 432.00 W/m2
11:54 53.3 °F /  11.8 °C 36.1 °F /  2.3 °C 29.62in /  1002.9hPa SW 4.0mph /  6.4km/h 16.0mph /  25.7km/h 52% 0.00in /  0mm 534.00 W/m2
11:59 53.5 °F /  11.9 °C 35.3 °F /  1.8 °C 29.62in /  1002.9hPa WSW 13.0mph /  20.9km/h 19.0mph /  30.6km/h 50% 0.00in /  0mm 531.00 W/m2
12:04 53.2 °F /  11.8 °C 34.0 °F /  1.1 °C 29.62in /  1002.9hPa West 8.0mph /  12.9km/h 19.0mph /  30.6km/h 48% 0.00in /  0mm 573.00 W/m2
12:09 53.6 °F /  12 °C 33.3 °F /  0.7 °C 29.62in /  1002.9hPa West 11.0mph /  17.7km/h 14.0mph /  22.5km/h 46% 0.00in /  0mm 452.00 W/m2
12:14 53.7 °F /  12.1 °C 32.8 °F /  0.4 °C 29.62in /  1002.9hPa West 9.0mph /  14.5km/h 14.0mph /  22.5km/h 45% 0.00in /  0mm 510.00 W/m2
12:19 53.7 °F /  12.1 °C 32.3 °F /  0.2 °C 29.62in /  1002.9hPa West 10.0mph /  16.1km/h 17.0mph /  27.4km/h 44% 0.00in /  0mm 455.00 W/m2
12:24 53.9 °F /  12.2 °C 32.5 °F /  0.3 °C 29.62in /  1002.9hPa WNW 13.0mph /  20.9km/h 17.0mph /  27.4km/h 44% 0.00in /  0mm 531.00 W/m2
12:29 54.2 °F /  12.3 °C 32.2 °F /  0.1 °C 29.62in /  1002.9hPa West 17.0mph /  27.4km/h 20.0mph /  32.2km/h 43% 0.00in /  0mm 571.00 W/m2
12:34 54.5 °F /  12.5 °C 33.0 °F /  0.6 °C 29.62in /  1002.9hPa NW 8.0mph /  12.9km/h 20.0mph /  32.2km/h 44% 0.00in /  0mm 993.00 W/m2
12:39 55.2 °F /  12.9 °C 31.9 °F /  -0.1 °C 29.62in /  1002.9hPa West 10.0mph /  16.1km/h 18.0mph /  29km/h 41% 0.00in /  0mm 649.00 W/m2
12:44 55.2 °F /  12.9 °C 32.5 °F /  0.3 °C 29.62in /  1002.9hPa West 12.0mph /  19.3km/h 18.0mph /  29km/h 42% 0.00in /  0mm 643.00 W/m2
12:49 55.8 °F /  13.2 °C 31.8 °F /  -0.1 °C 29.62in /  1002.9hPa WSW 16.0mph /  25.7km/h 16.0mph /  25.7km/h 40% 0.00in /  0mm 842.00 W/m2
12:54 56.4 °F /  13.6 °C 32.4 °F /  0.2 °C 29.62in /  1002.9hPa West 10.0mph /  16.1km/h 19.0mph /  30.6km/h 40% 0.00in /  0mm 872.00 W/m2
12:59 57.5 °F /  14.2 °C 31.4 °F /  -0.3 °C 29.62in /  1002.9hPa WNW 6.0mph /  9.7km/h 19.0mph /  30.6km/h 37% 0.00in /  0mm 1104.00 W/m2
13:04 56.8 °F /  13.8 °C 30.1 °F /  -1.1 °C 29.61in /  1002.6hPa WSW 9.0mph /  14.5km/h 20.0mph /  32.2km/h 36% 0.00in /  0mm 789.00 W/m2
13:09 57.6 °F /  14.2 °C 32.8 °F /  0.4 °C 29.61in /  1002.6hPa WNW 7.0mph /  11.3km/h 20.0mph /  32.2km/h 39% 0.00in /  0mm 828.00 W/m2
13:14 58.0 °F /  14.4 °C 31.2 °F /  -0.4 °C 29.61in /  1002.6hPa West 10.0mph /  16.1km/h 19.0mph /  30.6km/h 36% 0.00in /  0mm 1037.00 W/m2
13:19 58.3 °F /  14.6 °C 30.0 °F /  -1.1 °C 29.61in /  1002.6hPa WNW 15.0mph /  24.1km/h 23.0mph /  37km/h 34% 0.00in /  0mm 877.00 W/m2
13:24 57.8 °F /  14.3 °C 29.6 °F /  -1.3 °C 29.61in /  1002.6hPa West 20.0mph /  32.2km/h 23.0mph /  37km/h 34% 0.00in /  0mm 751.00 W/m2
13:29 57.7 °F /  14.3 °C 28.8 °F /  -1.8 °C 29.61in /  1002.6hPa West 14.0mph /  22.5km/h 25.0mph /  40.2km/h 33% 0.00in /  0mm 884.00 W/m2
13:34 58.6 °F /  14.8 °C 28.8 °F /  -1.8 °C 29.60in /  1002.3hPa WNW 16.0mph /  25.7km/h 25.0mph /  40.2km/h 32% 0.00in /  0mm 870.00 W/m2
13:39 58.0 °F /  14.4 °C 28.3 °F /  -2.1 °C 29.61in /  1002.6hPa West 10.0mph /  16.1km/h 24.0mph /  38.6km/h 32% 0.00in /  0mm 884.00 W/m2
13:44 58.3 °F /  14.6 °C 28.5 °F /  -1.9 °C 29.61in /  1002.6hPa WNW 16.0mph /  25.7km/h 24.0mph /  38.6km/h 32% 0.00in /  0mm 939.00 W/m2
13:49 58.7 °F /  14.8 °C 28.9 °F /  -1.7 °C 29.61in /  1002.6hPa West 8.0mph /  12.9km/h 24.0mph /  38.6km/h 32% 0.00in /  0mm 990.00 W/m2
13:54 57.6 °F /  14.2 °C 28.7 °F /  -1.8 °C 29.60in /  1002.3hPa West 8.0mph /  12.9km/h 24.0mph /  38.6km/h 33% 0.00in /  0mm 482.00 W/m2
13:59 57.9 °F /  14.4 °C 27.4 °F /  -2.6 °C 29.61in /  1002.6hPa West 8.0mph /  12.9km/h 24.0mph /  38.6km/h 31% 0.00in /  0mm 311.00 W/m2
14:04 56.9 °F /  13.8 °C 28.1 °F /  -2.2 °C 29.60in /  1002.3hPa West 8.0mph /  12.9km/h 24.0mph /  38.6km/h 33% 0.00in /  0mm 292.00 W/m2
14:09 58.3 °F /  14.6 °C 29.3 °F /  -1.5 °C 29.61in /  1002.6hPa WNW 22.0mph /  35.4km/h 25.0mph /  40.2km/h 33% 0.00in /  0mm 350.00 W/m2
14:14 58.7 °F /  14.8 °C 28.9 °F /  -1.7 °C 29.61in /  1002.6hPa WNW 13.0mph /  20.9km/h 25.0mph /  40.2km/h 32% 0.00in /  0mm 1046.00 W/m2
14:19 57.6 °F /  14.2 °C 27.2 °F /  -2.7 °C 29.61in /  1002.6hPa West 17.0mph /  27.4km/h 23.0mph /  37km/h 31% 0.00in /  0mm 301.00 W/m2
14:24 57.2 °F /  14 °C 27.6 °F /  -2.4 °C 29.61in /  1002.6hPa West 10.0mph /  16.1km/h 23.0mph /  37km/h 32% 0.00in /  0mm 352.00 W/m2
14:29 57.4 °F /  14.1 °C 28.5 °F /  -1.9 °C 29.61in /  1002.6hPa West 22.0mph /  35.4km/h 23.0mph /  37km/h 33% 0.00in /  0mm 364.00 W/m2
14:34 57.4 °F /  14.1 °C 27.7 °F /  -2.4 °C 29.61in /  1002.6hPa WSW 15.0mph /  24.1km/h 24.0mph /  38.6km/h 32% 0.00in /  0mm 353.00 W/m2
14:39 57.8 °F /  14.3 °C 28.9 °F /  -1.7 °C 29.60in /  1002.3hPa West 22.0mph /  35.4km/h 26.0mph /  41.8km/h 33% 0.00in /  0mm 376.00 W/m2
14:44 58.3 °F /  14.6 °C 28.5 °F /  -1.9 °C 29.61in /  1002.6hPa West 17.0mph /  27.4km/h 28.0mph /  45.1km/h 32% 0.00in /  0mm 287.00 W/m2
14:49 57.2 °F /  14 °C 27.6 °F /  -2.4 °C 29.61in /  1002.6hPa West 14.0mph /  22.5km/h 28.0mph /  45.1km/h 32% 0.00in /  0mm 216.00 W/m2
14:54 57.0 °F /  13.9 °C 28.1 °F /  -2.2 °C 29.61in /  1002.6hPa West 14.0mph /  22.5km/h 22.0mph /  35.4km/h 33% 0.00in /  0mm 281.00 W/m2
14:59 57.2 °F /  14 °C 28.3 °F /  -2.1 °C 29.61in /  1002.6hPa West 14.0mph /  22.5km/h 23.0mph /  37km/h 33% 0.00in /  0mm 315.00 W/m2
15:04 57.8 °F /  14.3 °C 28.1 °F /  -2.2 °C 29.61in /  1002.6hPa WNW 16.0mph /  25.7km/h 23.0mph /  37km/h 32% 0.00in /  0mm 330.00 W/m2
15:09 58.0 °F /  14.4 °C 29.0 °F /  -1.7 °C 29.61in /  1002.6hPa WNW 22.0mph /  35.4km/h 26.0mph /  41.8km/h 33% 0.00in /  0mm 464.00 W/m2
15:14 60.1 °F /  15.6 °C 30.9 °F /  -0.6 °C 29.61in /  1002.6hPa WSW 18.0mph /  29km/h 26.0mph /  41.8km/h 33% 0.00in /  0mm 1004.00 W/m2
15:19 59.8 °F /  15.4 °C 28.3 °F /  -2.1 °C 29.61in /  1002.6hPa West 10.0mph /  16.1km/h 23.0mph /  37km/h 30% 0.00in /  0mm 800.00 W/m2
15:24 60.2 °F /  15.7 °C 29.4 °F /  -1.4 °C 29.61in /  1002.6hPa NW 15.0mph /  24.1km/h 22.0mph /  35.4km/h 31% 0.00in /  0mm 916.00 W/m2
15:29 58.1 °F /  14.5 °C 27.6 °F /  -2.4 °C 29.61in /  1002.6hPa WNW 16.0mph /  25.7km/h 21.0mph /  33.8km/h 31% 0.00in /  0mm 225.00 W/m2
15:34 57.3 °F /  14.1 °C 28.4 °F /  -2 °C 29.61in /  1002.6hPa WSW 15.0mph /  24.1km/h 25.0mph /  40.2km/h 33% 0.00in /  0mm 255.00 W/m2
15:39 57.4 °F /  14.1 °C 29.2 °F /  -1.6 °C 29.61in /  1002.6hPa WNW 15.0mph /  24.1km/h 25.0mph /  40.2km/h 34% 0.00in /  0mm 294.00 W/m2
15:44 58.6 °F /  14.8 °C 29.6 °F /  -1.3 °C 29.61in /  1002.6hPa WNW 15.0mph /  24.1km/h 22.0mph /  35.4km/h 33% 0.00in /  0mm 835.00 W/m2
15:49 58.4 °F /  14.7 °C 27.9 °F /  -2.3 °C 29.61in /  1002.6hPa West 18.0mph /  29km/h 24.0mph /  38.6km/h 31% 0.00in /  0mm 195.00 W/m2
15:54 58.9 °F /  14.9 °C 29.1 °F /  -1.6 °C 29.61in /  1002.6hPa WNW 12.0mph /  19.3km/h 24.0mph /  38.6km/h 32% 0.00in /  0mm 482.00 W/m2
15:59 59.2 °F /  15.1 °C 30.1 °F /  -1.1 °C 29.61in /  1002.6hPa West 22.0mph /  35.4km/h 23.0mph /  37km/h 33% 0.00in /  0mm 381.00 W/m2
16:04 59.1 °F /  15.1 °C 28.5 °F /  -1.9 °C 29.61in /  1002.6hPa West 11.0mph /  17.7km/h 22.0mph /  35.4km/h 31% 0.00in /  0mm 288.00 W/m2
16:09 59.2 °F /  15.1 °C 30.1 °F /  -1.1 °C 29.61in /  1002.6hPa West 16.0mph /  25.7km/h 26.0mph /  41.8km/h 33% 0.00in /  0mm 847.00 W/m2
16:14 59.5 °F /  15.3 °C 30.3 °F /  -0.9 °C 29.61in /  1002.6hPa WNW 17.0mph /  27.4km/h 26.0mph /  41.8km/h 33% 0.00in /  0mm 721.00 W/m2
16:19 59.7 °F /  15.4 °C 31.3 °F /  -0.4 °C 29.61in /  1002.6hPa NW 16.0mph /  25.7km/h 22.0mph /  35.4km/h 34% 0.00in /  0mm 731.00 W/m2
16:24 59.5 °F /  15.3 °C 29.6 °F /  -1.3 °C 29.61in /  1002.6hPa NW 19.0mph /  30.6km/h 22.0mph /  35.4km/h 32% 0.00in /  0mm 719.00 W/m2
16:29 59.4 °F /  15.2 °C 29.5 °F /  -1.4 °C 29.61in /  1002.6hPa WNW 10.0mph /  16.1km/h 20.0mph /  32.2km/h 32% 0.00in /  0mm 756.00 W/m2
16:34 59.8 °F /  15.4 °C 30.6 °F /  -0.8 °C 29.61in /  1002.6hPa West 24.0mph /  38.6km/h 24.0mph /  38.6km/h 33% 0.00in /  0mm 689.00 W/m2
16:39 59.9 °F /  15.5 °C 29.2 °F /  -1.6 °C 29.61in /  1002.6hPa West 16.0mph /  25.7km/h 25.0mph /  40.2km/h 31% 0.00in /  0mm 202.00 W/m2
16:44 59.3 °F /  15.2 °C 30.2 °F /  -1 °C 29.61in /  1002.6hPa West 13.0mph /  20.9km/h 25.0mph /  40.2km/h 33% 0.00in /  0mm 169.00 W/m2
16:49 59.8 °F /  15.4 °C 29.9 °F /  -1.2 °C 29.62in /  1002.9hPa West 16.0mph /  25.7km/h 21.0mph /  33.8km/h 32% 0.00in /  0mm 745.00 W/m2
16:54 58.9 °F /  14.9 °C 28.3 °F /  -2.1 °C 29.62in /  1002.9hPa West 12.0mph /  19.3km/h 25.0mph /  40.2km/h 31% 0.00in /  0mm 204.00 W/m2
16:59 58.0 °F /  14.4 °C 28.3 °F /  -2.1 °C 29.62in /  1002.9hPa WNW 19.0mph /  30.6km/h 25.0mph /  40.2km/h 32% 0.00in /  0mm 255.00 W/m2
17:04 58.0 °F /  14.4 °C 29.0 °F /  -1.7 °C 29.62in /  1002.9hPa West 11.0mph /  17.7km/h 22.0mph /  35.4km/h 33% 0.00in /  0mm 248.00 W/m2
17:09 57.8 °F /  14.3 °C 28.1 °F /  -2.2 °C 29.62in /  1002.9hPa West 16.0mph /  25.7km/h 22.0mph /  35.4km/h 32% 0.00in /  0mm 241.00 W/m2
17:14 57.8 °F /  14.3 °C 28.9 °F /  -1.7 °C 29.62in /  1002.9hPa West 18.0mph /  29km/h 22.0mph /  35.4km/h 33% 0.00in /  0mm 248.00 W/m2
17:19 58.5 °F /  14.7 °C 29.5 °F /  -1.4 °C 29.62in /  1002.9hPa WSW 19.0mph /  30.6km/h 23.0mph /  37km/h 33% 0.00in /  0mm 236.00 W/m2
17:24 58.4 °F /  14.7 °C 27.9 °F /  -2.3 °C 29.62in /  1002.9hPa WSW 15.0mph /  24.1km/h 23.0mph /  37km/h 31% 0.00in /  0mm 362.00 W/m2
17:29 58.3 °F /  14.6 °C 28.5 °F /  -1.9 °C 29.63in /  1003.3hPa West 13.0mph /  20.9km/h 23.0mph /  37km/h 32% 0.00in /  0mm 241.00 W/m2
17:34 58.6 °F /  14.8 °C 28.8 °F /  -1.8 °C 29.63in /  1003.3hPa WNW 12.0mph /  19.3km/h 20.0mph /  32.2km/h 32% 0.00in /  0mm 689.00 W/m2
17:39 59.9 °F /  15.5 °C 29.2 °F /  -1.6 °C 29.63in /  1003.3hPa West 17.0mph /  27.4km/h 18.0mph /  29km/h 31% 0.00in /  0mm 631.00 W/m2
17:44 60.0 °F /  15.6 °C 28.4 °F /  -2 °C 29.63in /  1003.3hPa NW 12.0mph /  19.3km/h 21.0mph /  33.8km/h 30% 0.00in /  0mm 571.00 W/m2
17:49 59.4 °F /  15.2 °C 27.9 °F /  -2.3 °C 29.63in /  1003.3hPa West 21.0mph /  33.8km/h 25.0mph /  40.2km/h 30% 0.00in /  0mm 533.00 W/m2
17:54 59.5 °F /  15.3 °C 28.8 °F /  -1.8 °C 29.63in /  1003.3hPa NW 11.0mph /  17.7km/h 25.0mph /  40.2km/h 31% 0.00in /  0mm 512.00 W/m2
17:59 59.1 °F /  15.1 °C 28.5 °F /  -1.9 °C 29.63in /  1003.3hPa NW 12.0mph /  19.3km/h 20.0mph /  32.2km/h 31% 0.00in /  0mm 285.00 W/m2
18:04 58.9 °F /  14.9 °C 28.3 °F /  -2.1 °C 29.64in /  1003.6hPa WNW 11.0mph /  17.7km/h 19.0mph /  30.6km/h 31% 0.00in /  0mm 497.00 W/m2
18:09 59.3 °F /  15.2 °C 29.4 °F /  -1.4 °C 29.63in /  1003.3hPa West 11.0mph /  17.7km/h 19.0mph /  30.6km/h 32% 0.00in /  0mm 489.00 W/m2
18:14 58.6 °F /  14.8 °C 28.0 °F /  -2.2 °C 29.64in /  1003.6hPa WNW 18.0mph /  29km/h 19.0mph /  30.6km/h 31% 0.00in /  0mm 123.00 W/m2
18:19 57.1 °F /  13.9 °C 28.2 °F /  -2.1 °C 29.64in /  1003.6hPa WNW 10.0mph /  16.1km/h 19.0mph /  30.6km/h 33% 0.00in /  0mm 118.00 W/m2
18:24 56.6 °F /  13.7 °C 27.8 °F /  -2.3 °C 29.64in /  1003.6hPa WNW 8.0mph /  12.9km/h 19.0mph /  30.6km/h 33% 0.00in /  0mm 132.00 W/m2
18:29 56.6 °F /  13.7 °C 29.2 °F /  -1.6 °C 29.64in /  1003.6hPa WSW 10.0mph /  16.1km/h 15.0mph /  24.1km/h 35% 0.00in /  0mm 146.00 W/m2
18:34 56.7 °F /  13.7 °C 27.9 °F /  -2.3 °C 29.64in /  1003.6hPa West 12.0mph /  19.3km/h 18.0mph /  29km/h 33% 0.00in /  0mm 144.00 W/m2
18:39 56.8 °F /  13.8 °C 28.7 °F /  -1.8 °C 29.64in /  1003.6hPa West 11.0mph /  17.7km/h 19.0mph /  30.6km/h 34% 0.00in /  0mm 149.00 W/m2
18:44 57.7 °F /  14.3 °C 28.8 °F /  -1.8 °C 29.64in /  1003.6hPa West 10.0mph /  16.1km/h 19.0mph /  30.6km/h 33% 0.00in /  0mm 385.00 W/m2
18:49 58.4 °F /  14.7 °C 28.6 °F /  -1.9 °C 29.64in /  1003.6hPa West 11.0mph /  17.7km/h 17.0mph /  27.4km/h 32% 0.00in /  0mm 265.00 W/m2
18:54 58.5 °F /  14.7 °C 27.9 °F /  -2.3 °C 29.64in /  1003.6hPa NW 6.0mph /  9.7km/h 15.0mph /  24.1km/h 31% 0.00in /  0mm 279.00 W/m2
18:59 58.3 °F /  14.6 °C 27.8 °F /  -2.3 °C 29.64in /  1003.6hPa NW 9.0mph /  14.5km/h 15.0mph /  24.1km/h 31% 0.00in /  0mm 243.00 W/m2
19:04 58.1 °F /  14.5 °C 27.6 °F /  -2.4 °C 29.65in /  1003.9hPa WSW 17.0mph /  27.4km/h 19.0mph /  30.6km/h 31% 0.00in /  0mm 234.00 W/m2
19:09 58.0 °F /  14.4 °C 27.5 °F /  -2.5 °C 29.65in /  1003.9hPa West 11.0mph /  17.7km/h 19.0mph /  30.6km/h 31% 0.00in /  0mm 221.00 W/m2
19:14 57.4 °F /  14.1 °C 27.7 °F /  -2.4 °C 29.65in /  1003.9hPa West 10.0mph /  16.1km/h 18.0mph /  29km/h 32% 0.00in /  0mm 202.00 W/m2
19:19 56.8 °F /  13.8 °C 27.2 °F /  -2.7 °C 29.65in /  1003.9hPa West 10.0mph /  16.1km/h 16.0mph /  25.7km/h 32% 0.00in /  0mm 54.00 W/m2
19:24 55.9 °F /  13.3 °C 27.2 °F /  -2.7 °C 29.65in /  1003.9hPa West 7.0mph /  11.3km/h 16.0mph /  25.7km/h 33% 0.00in /  0mm 51.00 W/m2
19:29 55.3 °F /  12.9 °C 27.4 °F /  -2.6 °C 29.65in /  1003.9hPa West 9.0mph /  14.5km/h 14.0mph /  22.5km/h 34% 0.00in /  0mm 46.00 W/m2
19:34 54.8 °F /  12.7 °C 28.3 °F /  -2.1 °C 29.65in /  1003.9hPa West 9.0mph /  14.5km/h 13.0mph /  20.9km/h 36% 0.00in /  0mm 81.00 W/m2
19:39 55.1 °F /  12.8 °C 28.6 °F /  -1.9 °C 29.65in /  1003.9hPa West 10.0mph /  16.1km/h 11.0mph /  17.7km/h 36% 0.00in /  0mm 90.00 W/m2
19:44 55.6 °F /  13.1 °C 29.0 °F /  -1.7 °C 29.65in /  1003.9hPa West 8.0mph /  12.9km/h 11.0mph /  17.7km/h 36% 0.00in /  0mm 70.00 W/m2
19:49 55.8 °F /  13.2 °C 29.2 °F /  -1.6 °C 29.65in /  1003.9hPa West 6.0mph /  9.7km/h 11.0mph /  17.7km/h 36% 0.00in /  0mm 62.00 W/m2
19:54 55.8 °F /  13.2 °C 28.5 °F /  -1.9 °C 29.65in /  1003.9hPa WNW 6.0mph /  9.7km/h 10.0mph /  16.1km/h 35% 0.00in /  0mm 51.00 W/m2
19:59 55.6 °F /  13.1 °C 28.4 °F /  -2 °C 29.65in /  1003.9hPa WNW 7.0mph /  11.3km/h 10.0mph /  16.1km/h 35% 0.00in /  0mm 42.00 W/m2
20:04 55.2 °F /  12.9 °C 28.0 °F /  -2.2 °C 29.65in /  1003.9hPa West 7.0mph /  11.3km/h 11.0mph /  17.7km/h 35% 0.00in /  0mm 28.00 W/m2
20:09 54.7 °F /  12.6 °C 28.2 °F /  -2.1 °C 29.66in /  1004.3hPa West 6.0mph /  9.7km/h 11.0mph /  17.7km/h 36% 0.00in /  0mm 21.00 W/m2
20:14 54.1 °F /  12.3 °C 28.4 °F /  -2 °C 29.66in /  1004.3hPa West 7.0mph /  11.3km/h 9.0mph /  14.5km/h 37% 0.00in /  0mm 18.00 W/m2
20:19 53.3 °F /  11.8 °C 28.3 °F /  -2.1 °C 29.66in /  1004.3hPa West 5.0mph /  8km/h 8.0mph /  12.9km/h 38% 0.00in /  0mm 12.00 W/m2
20:24 52.6 °F /  11.4 °C 28.3 °F /  -2.1 °C 29.66in /  1004.3hPa WNW 5.0mph /  8km/h 7.0mph /  11.3km/h 39% 0.00in /  0mm 9.00 W/m2
20:29 51.8 °F /  11 °C 28.2 °F /  -2.1 °C 29.66in /  1004.3hPa WNW 4.0mph /  6.4km/h 6.0mph /  9.7km/h 40% 0.00in /  0mm 7.00 W/m2
20:34 51.2 °F /  10.7 °C 27.7 °F /  -2.4 °C 29.66in /  1004.3hPa WNW 4.0mph /  6.4km/h 6.0mph /  9.7km/h 40% 0.00in /  0mm 5.00 W/m2
20:39 50.9 °F /  10.5 °C 28.0 °F /  -2.2 °C 29.66in /  1004.3hPa WNW 4.0mph /  6.4km/h 6.0mph /  9.7km/h 41% 0.00in /  0mm 0.00 W/m2
20:44 50.6 °F /  10.3 °C 27.7 °F /  -2.4 °C 29.66in /  1004.3hPa WNW 2.0mph /  3.2km/h 5.0mph /  8km/h 41% 0.00in /  0mm 0.00 W/m2
20:49 50.3 °F /  10.2 °C 27.5 °F /  -2.5 °C 29.66in /  1004.3hPa WNW 3.0mph /  4.8km/h 4.0mph /  6.4km/h 41% 0.00in /  0mm 0.00 W/m2
20:54 49.9 °F /  9.9 °C 27.1 °F /  -2.7 °C 29.66in /  1004.3hPa WNW 2.0mph /  3.2km/h 3.0mph /  4.8km/h 41% 0.00in /  0mm 0.00 W/m2
20:59 49.6 °F /  9.8 °C 27.4 °F /  -2.6 °C 29.66in /  1004.3hPa WNW 1.0mph /  1.6km/h 3.0mph /  4.8km/h 42% 0.00in /  0mm 0.00 W/m2
21:04 49.4 °F /  9.7 °C 27.2 °F /  -2.7 °C 29.66in /  1004.3hPa WNW 1.0mph /  1.6km/h 2.0mph /  3.2km/h 42% 0.00in /  0mm 0.00 W/m2
21:09 49.3 °F /  9.6 °C 27.2 °F /  -2.7 °C 29.67in /  1004.6hPa WNW 2.0mph /  3.2km/h 4.0mph /  6.4km/h 42% 0.00in /  0mm 0.00 W/m2
21:14 49.1 °F /  9.5 °C 27.0 °F /  -2.8 °C 29.68in /  1005hPa WNW 2.0mph /  3.2km/h 4.0mph /  6.4km/h 42% 0.00in /  0mm 0.00 W/m2
21:19 48.7 °F /  9.3 °C 26.6 °F /  -3 °C 29.68in /  1005hPa WNW 2.0mph /  3.2km/h 3.0mph /  4.8km/h 42% 0.00in /  0mm 0.00 W/m2
21:24 48.4 °F /  9.1 °C 26.9 °F /  -2.8 °C 29.68in /  1005hPa WNW 1.0mph /  1.6km/h 3.0mph /  4.8km/h 43% 0.00in /  0mm 0.00 W/m2
21:29 48.3 °F /  9.1 °C 26.8 °F /  -2.9 °C 29.68in /  1005hPa WNW 1.0mph /  1.6km/h 4.0mph /  6.4km/h 43% 0.00in /  0mm 0.00 W/m2
21:34 48.2 °F /  9 °C 26.7 °F /  -2.9 °C 29.68in /  1005hPa WNW 1.0mph /  1.6km/h 4.0mph /  6.4km/h 43% 0.00in /  0mm 0.00 W/m2
21:39 47.8 °F /  8.8 °C 26.9 °F /  -2.8 °C 29.68in /  1005hPa WNW 2.0mph /  3.2km/h 3.0mph /  4.8km/h 44% 0.00in /  0mm 0.00 W/m2
21:44 47.5 °F /  8.6 °C 26.6 °F /  -3 °C 29.68in /  1005hPa WNW 2.0mph /  3.2km/h 3.0mph /  4.8km/h 44% 0.00in /  0mm 0.00 W/m2
21:49 47.4 °F /  8.6 °C 26.6 °F /  -3 °C 29.68in /  1005hPa WNW 1.0mph /  1.6km/h 3.0mph /  4.8km/h 44% 0.00in /  0mm 0.00 W/m2
21:54 47.1 °F /  8.4 °C 26.8 °F /  -2.9 °C 29.69in /  1005.3hPa WNW 4.0mph /  6.4km/h 4.0mph /  6.4km/h 45% 0.00in /  0mm 0.00 W/m2
21:59 46.7 °F /  8.2 °C 27.0 °F /  -2.8 °C 29.69in /  1005.3hPa North 3.0mph /  4.8km/h 6.0mph /  9.7km/h 46% 0.00in /  0mm 0.00 W/m2
22:04 46.2 °F /  7.9 °C 26.5 °F /  -3.1 °C 29.69in /  1005.3hPa North 2.0mph /  3.2km/h 6.0mph /  9.7km/h 46% 0.00in /  0mm 0.00 W/m2
22:09 46.1 °F /  7.8 °C 27.0 °F /  -2.8 °C 29.69in /  1005.3hPa North 2.0mph /  3.2km/h 4.0mph /  6.4km/h 47% 0.00in /  0mm 0.00 W/m2
22:14 46.1 °F /  7.8 °C 26.4 °F /  -3.1 °C 29.70in /  1005.6hPa North 2.0mph /  3.2km/h 3.0mph /  4.8km/h 46% 0.00in /  0mm 0.00 W/m2
22:19 46.2 °F /  7.9 °C 26.5 °F /  -3.1 °C 29.70in /  1005.6hPa North 2.0mph /  3.2km/h 3.0mph /  4.8km/h 46% 0.00in /  0mm 0.00 W/m2
22:24 46.2 °F /  7.9 °C 26.5 °F /  -3.1 °C 29.70in /  1005.6hPa North 2.0mph /  3.2km/h 3.0mph /  4.8km/h 46% 0.00in /  0mm 0.00 W/m2
22:29 46.1 °F /  7.8 °C 26.4 °F /  -3.1 °C 29.70in /  1005.6hPa North 1.0mph /  1.6km/h 3.0mph /  4.8km/h 46% 0.00in /  0mm 0.00 W/m2
22:34 45.9 °F /  7.7 °C 26.3 °F /  -3.2 °C 29.70in /  1005.6hPa Calm   3.0mph /  4.8km/h 46% 0.00in /  0mm 0.00 W/m2
22:39 45.7 °F /  7.6 °C 26.1 °F /  -3.3 °C 29.70in /  1005.6hPa Calm   2.0mph /  3.2km/h 46% 0.00in /  0mm 0.00 W/m2
22:44 45.8 °F /  7.7 °C 26.2 °F /  -3.2 °C 29.70in /  1005.6hPa Calm   1.0mph /  1.6km/h 46% 0.00in /  0mm 0.00 W/m2
22:49 45.8 °F /  7.7 °C 26.2 °F /  -3.2 °C 29.70in /  1005.6hPa Calm     46% 0.00in /  0mm 0.00 W/m2
22:54 45.8 °F /  7.7 °C 26.2 °F /  -3.2 °C 29.70in /  1005.6hPa Calm     46% 0.00in /  0mm 0.00 W/m2
22:59 45.7 °F /  7.6 °C 26.1 °F /  -3.3 °C 29.70in /  1005.6hPa Calm     46% 0.00in /  0mm 0.00 W/m2
23:04 45.5 °F /  7.5 °C 25.9 °F /  -3.4 °C 29.70in /  1005.6hPa Calm     46% 0.00in /  0mm 0.00 W/m2
23:09 45.5 °F /  7.5 °C 26.4 °F /  -3.1 °C 29.70in /  1005.6hPa Calm     47% 0.00in /  0mm 0.00 W/m2
23:14 45.7 °F /  7.6 °C 26.6 °F /  -3 °C 29.70in /  1005.6hPa North 1.0mph /  1.6km/h 2.0mph /  3.2km/h 47% 0.00in /  0mm 0.00 W/m2
23:19 45.6 °F /  7.6 °C 26.0 °F /  -3.3 °C 29.70in /  1005.6hPa Calm   2.0mph /  3.2km/h 46% 0.00in /  0mm 0.00 W/m2
23:24 45.6 °F /  7.6 °C 26.0 °F /  -3.3 °C 29.70in /  1005.6hPa North 2.0mph /  3.2km/h 2.0mph /  3.2km/h 46% 0.00in /  0mm 0.00 W/m2
23:29 45.5 °F /  7.5 °C 25.9 °F /  -3.4 °C 29.70in /  1005.6hPa North 1.0mph /  1.6km/h 2.0mph /  3.2km/h 46% 0.00in /  0mm 0.00 W/m2
23:34 45.6 °F /  7.6 °C 26.5 °F /  -3.1 °C 29.70in /  1005.6hPa North 1.0mph /  1.6km/h 2.0mph /  3.2km/h 47% 0.00in /  0mm 0.00 W/m2
23:39 45.8 °F /  7.7 °C 26.2 °F /  -3.2 °C 29.70in /  1005.6hPa North 1.0mph /  1.6km/h 2.0mph /  3.2km/h 46% 0.00in /  0mm 0.00 W/m2
23:44 45.8 °F /  7.7 °C 26.2 °F /  -3.2 °C 29.70in /  1005.6hPa Calm   2.0mph /  3.2km/h 46% 0.00in /  0mm 0.00 W/m2
23:49 45.6 °F /  7.6 °C 26.0 °F /  -3.3 °C 29.71in /  1006hPa North 1.0mph /  1.6km/h 2.0mph /  3.2km/h 46% 0.00in /  0mm 0.00 W/m2
23:54 45.4 °F /  7.4 °C 26.3 °F /  -3.2 °C 29.71in /  1006hPa North 2.0mph /  3.2km/h 2.0mph /  3.2km/h 47% 0.00in /  0mm 0.00 W/m2
23:59 45.1 °F /  7.3 °C 26.1 °F /  -3.3 °C 29.71in /  1006hPa North 1.0mph /  1.6km/h 2.0mph /  3.2km/h 47% 0.00in /  0mm 0.00 W/m2
Bismarck, North Dakota, USA
Compliments of Weather Underground - 4 mb